Time;durP1;ratioP1;P1;durP2;ratioP2;P2;SDS_P1;SDS_P2;PMS_P1;PMS_P2;Temp;Humidity;BMP_temperature;BMP_pressure;BME280_temperature;BME280_humidity;BME280_pressure;Samples;Min_cycle;Max_cycle;Signal;HPM_P1;HPM_P2
2022/06/25 00:00:58;;;;;;;;;;;23.30;63.30;;;;;;5076090;28;19919;-69
2022/06/25 00:03:24;;;;;;;;;;;23.20;63.10;;;;;;5075786;28;19908;-70
2022/06/25 00:05:50;;;;;;;;;;;23.30;63.20;;;;;;5094004;28;19951;-70
2022/06/25 00:08:15;;;;;;;;;;;23.30;63.10;;;;;;5093800;28;19908;-70
2022/06/25 00:10:41;;;;;;;;;;;23.30;63.10;;;;;;5094470;28;20296;-69
2022/06/25 00:13:06;;;;;;;;;;;23.30;63.40;;;;;;5075864;28;19912;-71
2022/06/25 00:15:32;;;;;;;;;;;23.30;63.20;;;;;;5093961;28;19908;-70
2022/06/25 00:17:58;;;;;;;;;;;23.30;63.20;;;;;;5093696;28;19915;-69
2022/06/25 00:20:24;;;;;;;;;;;23.30;63.20;;;;;;5093910;28;19908;-70
2022/06/25 00:22:49;;;;;;;;;;;23.30;63.00;;;;;;5094731;28;19912;-69
2022/06/25 00:25:15;;;;;;;;;;;23.30;63.20;;;;;;5097816;28;19915;-69
2022/06/25 00:27:40;;;;;;;;;;;23.30;63.20;;;;;;5079538;28;19942;-69
2022/06/25 00:30:06;;;;;;;;;;;23.30;63.30;;;;;;5097874;28;19931;-70
2022/06/25 00:32:32;;;;;;;;;;;23.30;63.30;;;;;;5097856;28;19951;-70
2022/06/25 00:34:57;;;;;;;;;;;23.30;63.40;;;;;;5079262;28;20375;-71
2022/06/25 00:37:23;;;;;;;;;;;23.30;63.30;;;;;;5097640;28;20003;-70
2022/06/25 00:39:50;;;;;;;;;;;23.30;63.30;;;;;;5097692;28;20277;-70
2022/06/25 00:42:15;;;;;;;;;;;23.30;63.30;;;;;;5079224;28;19908;-69
2022/06/25 00:44:41;;;;;;;;;;;23.30;63.70;;;;;;5097252;28;19908;-70
2022/06/25 00:47:07;;;;;;;;;;;23.30;63.90;;;;;;5097263;28;19908;-70
2022/06/25 00:49:33;;;;;;;;;;;23.30;63.40;;;;;;5078950;28;19908;-70
2022/06/25 00:52:00;;;;;;;;;;;23.20;64.00;;;;;;5097221;28;20364;-70
2022/06/25 00:54:29;;;;;;;;;;;23.20;63.90;;;;;;5097598;28;19999;-69
2022/06/25 00:56:56;;;;;;;;;;;23.10;64.10;;;;;;5097624;28;19912;-70
2022/06/25 00:59:24;;;;;;;;;;;23.10;64.00;;;;;;5078908;28;19908;-70
2022/06/25 01:01:50;;;;;;;;;;;23.00;63.70;;;;;;5096287;28;20358;-70
2022/06/25 01:04:15;;;;;;;;;;;23.10;64.00;;;;;;5096818;28;19908;-70
2022/06/25 01:06:41;;;;;;;;;;;23.10;63.80;;;;;;5097258;28;19908;-71
2022/06/25 01:09:07;;;;;;;;;;;23.00;64.40;;;;;;5097070;28;19950;-71
2022/06/25 01:11:33;;;;;;;;;;;23.10;64.00;;;;;;5097113;28;19916;-69
2022/06/25 01:13:58;;;;;;;;;;;23.10;64.00;;;;;;5096872;28;19912;-69
2022/06/25 01:16:24;;;;;;;;;;;23.10;64.30;;;;;;5096904;28;19908;-69
2022/06/25 01:18:49;;;;;;;;;;;23.10;63.90;;;;;;5078448;28;19912;-70
2022/06/25 01:21:15;;;;;;;;;;;23.10;63.90;;;;;;5096640;28;19934;-70
2022/06/25 01:23:41;;;;;;;;;;;23.10;63.90;;;;;;5096809;28;19908;-70
2022/06/25 01:26:07;;;;;;;;;;;23.20;64.30;;;;;;5096800;28;19915;-70
2022/06/25 01:28:32;;;;;;;;;;;23.10;64.30;;;;;;5096530;28;19920;-70
2022/06/25 01:30:58;;;;;;;;;;;23.10;64.00;;;;;;5096335;28;20011;-72
2022/06/25 01:33:23;;;;;;;;;;;23.10;64.80;;;;;;5078178;28;19909;-70
2022/06/25 01:35:49;;;;;;;;;;;23.10;64.20;;;;;;5077710;28;19912;-69
2022/06/25 01:38:15;;;;;;;;;;;23.00;64.20;;;;;;5096442;28;19960;-70
2022/06/25 01:40:40;;;;;;;;;;;23.00;64.30;;;;;;5096343;28;19908;-71
2022/06/25 01:43:06;;;;;;;;;;;23.00;64.60;;;;;;5096159;28;19915;-69
2022/06/25 01:45:33;;;;;;;;;;;23.00;64.90;;;;;;5096301;28;19908;-71
2022/06/25 01:47:59;;;;;;;;;;;22.90;64.60;;;;;;5096414;28;20293;-70
2022/06/25 01:50:25;;;;;;;;;;;22.90;65.50;;;;;;5095935;28;19923;-70
2022/06/25 01:52:51;;;;;;;;;;;22.80;65.20;;;;;;5096208;28;19951;-71
2022/06/25 01:55:17;;;;;;;;;;;22.80;65.20;;;;;;5078126;28;19942;-70
2022/06/25 01:57:42;;;;;;;;;;;22.80;65.10;;;;;;5095768;28;20297;-70
2022/06/25 02:00:10;;;;;;;;;;;22.80;65.90;;;;;;5096078;28;20003;-70
2022/06/25 02:02:37;;;;;;;;;;;22.80;65.00;;;;;;5096034;28;20003;-70
2022/06/25 02:05:06;;;;;;;;;;;22.80;66.50;;;;;;5096051;28;20002;-69
2022/06/25 02:07:32;;;;;;;;;;;22.70;65.20;;;;;;5095814;28;19920;-70
2022/06/25 02:09:58;;;;;;;;;;;22.70;66.80;;;;;;5095929;28;20468;-70
2022/06/25 02:12:23;;;;;;;;;;;22.60;65.70;;;;;;5077957;28;19944;-69
2022/06/25 02:14:49;;;;;;;;;;;22.60;65.50;;;;;;5095459;28;19966;-70
2022/06/25 02:17:14;;;;;;;;;;;22.60;65.80;;;;;;5095463;28;19912;-70
2022/06/25 02:19:40;;;;;;;;;;;22.60;65.70;;;;;;5078149;28;19958;-71
2022/06/25 02:22:05;;;;;;;;;;;22.60;65.60;;;;;;5095692;28;19912;-70
2022/06/25 02:24:32;;;;;;;;;;;22.60;65.70;;;;;;5095726;28;19908;-71
2022/06/25 02:26:57;;;;;;;;;;;22.70;65.80;;;;;;5095260;28;19923;-70
2022/06/25 02:29:23;;;;;;;;;;;22.70;65.50;;;;;;5095634;28;19920;-68
2022/06/25 02:31:49;;;;;;;;;;;22.70;65.90;;;;;;5077610;28;19920;-70
2022/06/25 02:34:14;;;;;;;;;;;22.70;66.00;;;;;;5095325;28;19909;-70
2022/06/25 02:36:40;;;;;;;;;;;22.70;65.80;;;;;;5095295;28;19954;-70
2022/06/25 02:39:05;;;;;;;;;;;22.70;66.00;;;;;;5095292;28;19908;-70
2022/06/25 02:41:31;;;;;;;;;;;22.70;66.20;;;;;;5095410;28;20006;-68
2022/06/25 02:43:56;;;;;;;;;;;22.70;66.40;;;;;;5094964;28;20358;-70
2022/06/25 02:46:22;;;;;;;;;;;22.60;65.80;;;;;;5094018;28;19937;-69
2022/06/25 02:48:47;;;;;;;;;;;22.60;66.00;;;;;;5095533;28;20370;-70
2022/06/25 02:51:13;;;;;;;;;;;22.70;65.70;;;;;;5094909;28;19923;-71
2022/06/25 02:53:38;;;;;;;;;;;22.70;66.00;;;;;;5094997;28;20346;-70
2022/06/25 02:58:55;;;;;;;;;;;22.70;65.80;;;;;;5095396;28;20329;-70
2022/06/25 03:01:21;;;;;;;;;;;22.80;65.50;;;;;;5094780;28;19908;-70
2022/06/25 03:03:46;;;;;;;;;;;22.80;65.50;;;;;;5095252;28;19915;-70
2022/06/25 03:06:12;;;;;;;;;;;22.80;65.40;;;;;;5094700;28;20289;-70
2022/06/25 03:08:38;;;;;;;;;;;22.80;65.20;;;;;;5095011;28;19958;-70
2022/06/25 03:11:03;;;;;;;;;;;22.90;65.70;;;;;;5094423;28;19984;-71
2022/06/25 03:13:31;;;;;;;;;;;22.90;65.30;;;;;;5076652;28;20276;-70
2022/06/25 03:15:57;;;;;;;;;;;22.90;65.20;;;;;;5094777;28;19908;-70
2022/06/25 03:18:22;;;;;;;;;;;22.80;65.20;;;;;;5094688;28;19961;-71
2022/06/25 03:20:50;;;;;;;;;;;22.80;65.70;;;;;;5094401;28;19908;-70
2022/06/25 03:23:15;;;;;;;;;;;22.90;65.70;;;;;;5094569;28;19950;-70
2022/06/25 03:25:41;;;;;;;;;;;22.80;65.30;;;;;;5094282;28;20344;-71
2022/06/25 03:28:07;;;;;;;;;;;22.80;65.30;;;;;;5094358;28;19912;-71
2022/06/25 03:30:32;;;;;;;;;;;22.90;65.30;;;;;;5094918;28;19924;-71
2022/06/25 03:32:58;;;;;;;;;;;23.00;65.30;;;;;;5094202;28;19926;-71
2022/06/25 03:35:23;;;;;;;;;;;23.00;65.20;;;;;;5076376;28;19942;-68
2022/06/25 03:37:49;;;;;;;;;;;23.00;65.10;;;;;;5094647;28;19912;-70
2022/06/25 03:40:14;;;;;;;;;;;23.10;65.40;;;;;;5094134;28;19959;-71
2022/06/25 03:42:40;;;;;;;;;;;23.10;65.00;;;;;;5094328;28;19955;-71
2022/06/25 03:45:05;;;;;;;;;;;23.20;65.10;;;;;;5076491;28;19915;-68
2022/06/25 03:47:31;;;;;;;;;;;23.10;64.80;;;;;;5076751;28;19909;-70
2022/06/25 03:49:56;;;;;;;;;;;23.20;65.30;;;;;;5093888;28;19988;-70
2022/06/25 03:52:22;;;;;;;;;;;23.10;65.20;;;;;;5093993;28;19908;-70
2022/06/25 03:54:47;;;;;;;;;;;23.10;64.90;;;;;;5093918;28;19908;-70
2022/06/25 03:57:13;;;;;;;;;;;23.10;65.10;;;;;;5093904;28;20389;-70
2022/06/25 03:59:39;;;;;;;;;;;23.10;65.20;;;;;;5098064;28;19919;-70
2022/06/25 04:02:04;;;;;;;;;;;23.00;64.90;;;;;;5098300;28;20016;-70
2022/06/25 04:04:30;;;;;;;;;;;23.10;65.40;;;;;;5098135;28;20431;-70
2022/06/25 04:06:55;;;;;;;;;;;23.10;65.40;;;;;;5098093;28;19915;-70
2022/06/25 04:09:21;;;;;;;;;;;23.10;65.30;;;;;;5098484;28;19909;-69
2022/06/25 04:11:46;;;;;;;;;;;23.10;65.10;;;;;;5098082;28;19916;-69
2022/06/25 04:14:12;;;;;;;;;;;23.10;64.90;;;;;;5098074;28;19915;-70
2022/06/25 04:16:37;;;;;;;;;;;23.10;65.00;;;;;;5098106;28;20354;-70
2022/06/25 04:19:03;;;;;;;;;;;23.20;65.10;;;;;;5098481;28;20351;-70
2022/06/25 04:21:28;;;;;;;;;;;23.20;64.90;;;;;;5097711;28;19928;-70
2022/06/25 04:23:54;;;;;;;;;;;23.20;65.10;;;;;;5097923;28;19954;-71
2022/06/25 04:26:19;;;;;;;;;;;23.20;65.20;;;;;;5097842;28;19912;-70
2022/06/25 04:29:03;;;;;;;;;;;23.10;65.40;;;;;;5079395;28;19920;-69
2022/06/25 04:31:32;;;;;;;;;;;23.00;65.40;;;;;;5097730;28;19924;-70
2022/06/25 04:33:58;;;;;;;;;;;23.00;65.00;;;;;;5097656;28;19994;-71
2022/06/25 04:36:24;;;;;;;;;;;23.00;65.50;;;;;;5097740;28;20361;-69
2022/06/25 04:38:50;;;;;;;;;;;23.00;65.50;;;;;;5097583;28;19982;-70
2022/06/25 04:41:15;;;;;;;;;;;22.90;65.80;;;;;;5079558;28;19908;-70
2022/06/25 04:43:41;;;;;;;;;;;23.00;65.30;;;;;;5097293;28;20358;-70
2022/06/25 04:46:06;;;;;;;;;;;23.00;65.30;;;;;;5097705;28;19940;-69
2022/06/25 04:48:32;;;;;;;;;;;23.00;65.30;;;;;;5097418;28;19908;-70
2022/06/25 04:50:57;;;;;;;;;;;23.10;65.10;;;;;;5097071;28;19917;-70
2022/06/25 04:53:23;;;;;;;;;;;23.20;65.00;;;;;;5096997;28;19912;-71
2022/06/25 04:55:48;;;;;;;;;;;23.20;64.80;;;;;;5097156;28;19999;-70
2022/06/25 04:58:14;;;;;;;;;;;23.30;64.60;;;;;;5097409;28;19964;-70
2022/06/25 05:00:40;;;;;;;;;;;23.40;64.60;;;;;;5097232;28;19919;-70
2022/06/25 05:03:06;;;;;;;;;;;23.40;64.40;;;;;;5078992;28;20263;-70
2022/06/25 05:05:31;;;;;;;;;;;23.50;64.30;;;;;;5096955;28;19958;-69
2022/06/25 05:07:57;;;;;;;;;;;23.50;64.10;;;;;;5097072;28;19912;-70
2022/06/25 05:10:22;;;;;;;;;;;23.60;64.00;;;;;;5095639;28;19916;-70
2022/06/25 05:15:33;;;;;;;;;;;23.70;63.80;;;;;;5097207;28;20265;-70
2022/06/25 05:17:59;;;;;;;;;;;23.70;63.70;;;;;;5096507;28;20010;-70
2022/06/25 05:20:24;;;;;;;;;;;23.80;63.70;;;;;;5095819;28;20400;-69
2022/06/25 05:22:50;;;;;;;;;;;23.90;63.70;;;;;;5097392;28;20286;-71
2022/06/25 05:25:16;;;;;;;;;;;23.90;63.40;;;;;;5096500;28;19908;-70
2022/06/25 05:27:41;;;;;;;;;;;24.00;63.30;;;;;;5096445;28;19908;-70
2022/06/25 05:30:07;;;;;;;;;;;24.10;63.20;;;;;;5096510;28;19931;-70
2022/06/25 05:32:33;;;;;;;;;;;24.20;63.00;;;;;;5116845;28;19918;-72
2022/06/25 05:34:59;;;;;;;;;;;24.30;62.80;;;;;;5116677;28;20010;-69
2022/06/25 05:37:24;;;;;;;;;;;24.30;62.40;;;;;;5117154;28;19955;-71
2022/06/25 05:39:50;;;;;;;;;;;24.40;62.50;;;;;;5116725;28;20366;-71
2022/06/25 05:42:16;;;;;;;;;;;24.40;62.40;;;;;;5117010;28;19907;-71
2022/06/25 05:44:43;;;;;;;;;;;24.40;62.40;;;;;;5116465;28;19915;-70
2022/06/25 05:47:09;;;;;;;;;;;24.40;62.30;;;;;;5098369;28;19908;-70
2022/06/25 05:49:34;;;;;;;;;;;24.40;62.20;;;;;;5116287;28;19908;-71
2022/06/25 05:52:00;;;;;;;;;;;24.40;62.30;;;;;;5116524;28;19981;-71
2022/06/25 05:54:26;;;;;;;;;;;24.50;62.20;;;;;;5106893;28;19915;-71
2022/06/25 05:56:52;;;;;;;;;;;24.50;62.20;;;;;;5105273;28;19920;-71
2022/06/25 05:59:17;;;;;;;;;;;24.50;62.20;;;;;;5086598;28;19915;-70
2022/06/25 06:01:43;;;;;;;;;;;24.50;62.10;;;;;;5103858;28;20050;-72
2022/06/25 06:04:09;;;;;;;;;;;24.50;62.10;;;;;;5087192;28;19966;-72
2022/06/25 06:06:34;;;;;;;;;;;24.60;62.10;;;;;;5086033;28;19916;-69
2022/06/25 06:09:00;;;;;;;;;;;24.70;62.00;;;;;;5104105;28;19970;-71
2022/06/25 06:11:25;;;;;;;;;;;24.70;62.10;;;;;;5105271;28;19916;-70
2022/06/25 06:13:51;;;;;;;;;;;24.70;62.10;;;;;;5103736;28;19914;-71
2022/06/25 06:16:16;;;;;;;;;;;24.80;61.90;;;;;;5104310;28;20364;-69
2022/06/25 06:18:42;;;;;;;;;;;24.80;61.90;;;;;;5105779;28;19908;-70
2022/06/25 06:21:07;;;;;;;;;;;24.90;61.70;;;;;;5109605;28;19915;-72
2022/06/25 06:23:33;;;;;;;;;;;25.00;61.80;;;;;;5084811;28;20003;-71
2022/06/25 06:25:58;;;;;;;;;;;25.00;61.40;;;;;;5105450;28;19995;-71
2022/06/25 06:28:24;;;;;;;;;;;24.90;61.40;;;;;;5105268;28;19990;-70
2022/06/25 06:30:49;;;;;;;;;;;24.90;61.50;;;;;;5085345;28;19928;-70
2022/06/25 06:33:15;;;;;;;;;;;24.90;61.50;;;;;;5099332;28;19912;-72
2022/06/25 06:35:41;;;;;;;;;;;24.90;61.50;;;;;;5098108;28;19917;-69
2022/06/25 06:38:06;;;;;;;;;;;24.90;61.60;;;;;;5094219;28;19912;-80
2022/06/25 06:40:32;;;;;;;;;;;24.90;62.30;;;;;;5094586;28;20316;-78
2022/06/25 06:42:57;;;;;;;;;;;24.80;62.00;;;;;;5077002;28;19915;-79
2022/06/25 06:45:23;;;;;;;;;;;24.70;62.20;;;;;;5076744;28;20392;-74
2022/06/25 06:47:49;;;;;;;;;;;24.60;62.10;;;;;;5082980;28;19911;-74
2022/06/25 06:50:14;;;;;;;;;;;24.50;62.70;;;;;;5103048;28;19921;-73
2022/06/25 06:52:40;;;;;;;;;;;24.50;63.10;;;;;;5103651;28;19907;-74
2022/06/25 06:55:06;;;;;;;;;;;24.30;63.00;;;;;;5097016;28;19969;-72
2022/06/25 06:57:32;;;;;;;;;;;24.20;63.30;;;;;;5103757;28;19912;-74
2022/06/25 07:00:00;;;;;;;;;;;24.10;63.20;;;;;;5113969;28;20006;-72
2022/06/25 07:02:26;;;;;;;;;;;24.00;64.00;;;;;;5110362;28;19908;-69
2022/06/25 07:04:52;;;;;;;;;;;24.00;64.50;;;;;;5114435;28;19919;-71
2022/06/25 07:07:18;;;;;;;;;;;23.90;64.10;;;;;;5105113;28;20270;-74
2022/06/25 07:09:43;;;;;;;;;;;23.90;64.90;;;;;;5092828;28;19916;-72
2022/06/25 07:12:09;;;;;;;;;;;23.80;65.20;;;;;;5096170;28;19912;-72
2022/06/25 07:14:35;;;;;;;;;;;23.80;65.10;;;;;;5096085;28;19908;-77
2022/06/25 07:17:01;;;;;;;;;;;23.70;65.00;;;;;;5094537;28;19931;-73
2022/06/25 07:19:26;;;;;;;;;;;23.70;65.70;;;;;;5102697;28;19915;-72
2022/06/25 07:21:54;;;;;;;;;;;23.70;65.40;;;;;;5102817;28;20188;-77
2022/06/25 07:24:20;;;;;;;;;;;23.70;65.70;;;;;;5104727;28;19990;-74
2022/06/25 07:26:46;;;;;;;;;;;23.70;65.70;;;;;;5085461;28;19967;-74
2022/06/25 07:29:12;;;;;;;;;;;23.80;65.50;;;;;;5096803;28;19963;-75
2022/06/25 07:31:37;;;;;;;;;;;23.80;65.10;;;;;;5094370;28;19942;-76
2022/06/25 07:34:03;;;;;;;;;;;24.00;65.10;;;;;;5075358;28;19909;-74
2022/06/25 07:36:28;;;;;;;;;;;24.10;64.80;;;;;;5058395;28;19912;-76
2022/06/25 07:38:54;;;;;;;;;;;24.20;64.70;;;;;;5084235;28;19938;-74
2022/06/25 07:41:20;;;;;;;;;;;24.20;64.50;;;;;;5092658;28;19912;-75
2022/06/25 07:43:45;;;;;;;;;;;24.30;64.30;;;;;;5092832;28;19908;-76
2022/06/25 07:46:11;;;;;;;;;;;24.30;64.40;;;;;;5074413;28;19908;-75
2022/06/25 07:48:37;;;;;;;;;;;24.30;64.00;;;;;;5075942;28;19908;-75
2022/06/25 07:53:46;;;;;;;;;;;24.20;64.20;;;;;;5094088;28;19915;-74
2022/06/25 07:56:12;;;;;;;;;;;24.10;64.40;;;;;;5075996;28;19995;-75
2022/06/25 07:58:38;;;;;;;;;;;24.10;64.70;;;;;;5094034;28;19908;-73
2022/06/25 08:01:03;;;;;;;;;;;24.00;64.90;;;;;;5076527;28;19934;-74
2022/06/25 08:03:29;;;;;;;;;;;24.00;64.50;;;;;;5093986;28;19911;-74
2022/06/25 08:05:55;;;;;;;;;;;24.10;64.60;;;;;;5075904;28;19977;-73
2022/06/25 08:08:20;;;;;;;;;;;24.20;64.90;;;;;;5076137;28;20251;-73
2022/06/25 08:10:46;;;;;;;;;;;24.30;64.60;;;;;;5093908;28;19986;-73
2022/06/25 08:13:11;;;;;;;;;;;24.40;64.20;;;;;;5093535;28;20384;-74
2022/06/25 08:15:37;;;;;;;;;;;24.50;64.00;;;;;;5093988;28;20382;-76
2022/06/25 08:18:03;;;;;;;;;;;24.60;63.70;;;;;;5094117;28;19915;-73
2022/06/25 08:20:28;;;;;;;;;;;24.70;63.70;;;;;;5093876;28;19955;-74
2022/06/25 08:22:54;;;;;;;;;;;24.70;63.50;;;;;;5093675;28;19912;-73
2022/06/25 08:25:19;;;;;;;;;;;24.70;63.50;;;;;;5093707;28;19963;-73
2022/06/25 08:27:46;;;;;;;;;;;24.80;63.40;;;;;;5093371;28;20335;-73
2022/06/25 08:30:11;;;;;;;;;;;24.90;63.40;;;;;;5093779;28;20389;-72
2022/06/25 08:32:37;;;;;;;;;;;25.00;63.20;;;;;;5075651;28;19909;-74
2022/06/25 08:35:02;;;;;;;;;;;25.10;62.90;;;;;;5093710;28;19963;-74
2022/06/25 08:37:28;;;;;;;;;;;25.10;62.30;;;;;;5094049;28;19908;-73
2022/06/25 08:39:53;;;;;;;;;;;25.20;62.40;;;;;;5093467;28;20346;-73
2022/06/25 08:42:19;;;;;;;;;;;25.20;62.40;;;;;;5093520;28;19912;-73
2022/06/25 08:44:45;;;;;;;;;;;25.30;62.40;;;;;;5077490;28;20435;-73
2022/06/25 08:47:11;;;;;;;;;;;25.40;62.20;;;;;;5097570;28;19940;-73
2022/06/25 08:49:37;;;;;;;;;;;25.50;61.80;;;;;;5097360;28;19991;-74
2022/06/25 08:52:04;;;;;;;;;;;25.60;62.00;;;;;;5097229;28;19920;-73
2022/06/25 08:54:30;;;;;;;;;;;25.60;62.00;;;;;;5097232;28;20277;-76
2022/06/25 08:56:57;;;;;;;;;;;25.70;62.10;;;;;;5078904;28;20354;-73
2022/06/25 08:59:24;;;;;;;;;;;25.60;61.80;;;;;;5096898;28;19908;-74
2022/06/25 09:01:49;;;;;;;;;;;25.60;61.80;;;;;;5096935;28;20015;-73
2022/06/25 09:04:16;;;;;;;;;;;25.70;61.60;;;;;;5096910;28;20342;-74
2022/06/25 09:06:42;;;;;;;;;;;25.80;61.80;;;;;;5096727;28;19912;-74
2022/06/25 09:09:12;;;;;;;;;;;25.80;61.70;;;;;;5078601;28;19932;-74
2022/06/25 09:11:53;;;;;;;;;;;25.90;61.70;;;;;;5096538;28;19920;-76
2022/06/25 09:14:23;;;;;;;;;;;25.90;61.70;;;;;;5097298;28;19908;-79
2022/06/25 09:16:59;;;;;;;;;;;25.90;61.10;;;;;;5078502;28;19908;-79
2022/06/25 09:19:36;;;;;;;;;;;25.80;61.10;;;;;;5096998;28;19908;-79
2022/06/25 09:22:09;;;;;;;;;;;25.70;61.50;;;;;;5096421;28;19908;-78
2022/06/25 09:24:38;;;;;;;;;;;25.50;61.70;;;;;;5097159;28;20361;-77
2022/06/25 09:27:04;;;;;;;;;;;25.50;62.10;;;;;;5096770;28;19914;-76
2022/06/25 09:29:36;;;;;;;;;;;25.40;62.20;;;;;;5097009;28;19924;-76
2022/06/25 09:32:01;;;;;;;;;;;25.40;61.90;;;;;;5078024;28;19920;-76
2022/06/25 09:34:35;;;;;;;;;;;25.50;61.70;;;;;;5096320;28;19912;-77
2022/06/25 09:37:17;;;;;;;;;;;25.40;61.00;;;;;;5096910;28;19934;-77
2022/06/25 09:39:44;;;;;;;;;;;25.40;61.40;;;;;;5095915;28;20002;-77
2022/06/25 09:42:19;;;;;;;;;;;25.40;61.50;;;;;;5095992;28;20370;-76
2022/06/25 09:44:45;;;;;;;;;;;25.50;61.50;;;;;;5077923;28;20007;-77
2022/06/25 09:47:11;;;;;;;;;;;25.50;61.40;;;;;;5096719;28;19951;-78
2022/06/25 09:49:37;;;;;;;;;;;25.50;61.40;;;;;;5096236;28;19985;-76
2022/06/25 09:52:02;;;;;;;;;;;25.50;61.20;;;;;;5096067;28;20337;-76
2022/06/25 09:54:29;;;;;;;;;;;25.60;61.00;;;;;;5096184;28;20002;-76
2022/06/25 09:56:54;;;;;;;;;;;25.60;60.70;;;;;;5095437;28;19908;-76
2022/06/25 09:59:21;;;;;;;;;;;25.70;60.80;;;;;;5078147;28;19919;-76
2022/06/25 10:01:46;;;;;;;;;;;25.70;60.40;;;;;;5096482;28;20011;-76
2022/06/25 10:04:12;;;;;;;;;;;25.80;60.80;;;;;;5096001;28;19981;-76
2022/06/25 10:06:39;;;;;;;;;;;26.00;60.80;;;;;;5095906;28;20366;-77
2022/06/25 10:09:06;;;;;;;;;;;26.10;60.50;;;;;;5095994;28;19915;-77
2022/06/25 10:11:34;;;;;;;;;;;26.10;60.50;;;;;;5077332;28;19923;-75
2022/06/25 10:14:00;;;;;;;;;;;26.20;59.80;;;;;;5095424;28;19919;-76
2022/06/25 10:16:26;;;;;;;;;;;26.30;60.60;;;;;;5077494;28;20011;-76
2022/06/25 10:18:52;;;;;;;;;;;26.30;59.70;;;;;;5095504;28;20056;-76
2022/06/25 10:21:19;;;;;;;;;;;26.40;59.70;;;;;;5095491;28;19931;-76
2022/06/25 10:23:45;;;;;;;;;;;26.50;59.90;;;;;;5095451;28;19908;-75
2022/06/25 10:26:12;;;;;;;;;;;26.60;59.30;;;;;;5095034;28;19908;-76
2022/06/25 10:28:37;;;;;;;;;;;26.60;59.30;;;;;;5095130;28;19967;-76
2022/06/25 10:31:21;;;;;;;;;;;26.50;58.60;;;;;;5095743;28;19951;-77
2022/06/25 10:33:57;;;;;;;;;;;26.50;58.70;;;;;;5077313;28;19908;-77
2022/06/25 10:36:41;;;;;;;;;;;26.50;59.20;;;;;;5095365;28;20255;-76
2022/06/25 10:39:22;;;;;;;;;;;26.60;59.30;;;;;;5077018;28;19915;-76
2022/06/25 10:44:50;;;;;;;;;;;26.80;59.10;;;;;;5095369;28;20049;-76
2022/06/25 10:47:15;;;;;;;;;;;26.90;59.00;;;;;;5095847;28;19954;-76
2022/06/25 10:49:41;;;;;;;;;;;26.90;58.90;;;;;;5095132;28;20356;-77
2022/06/25 10:52:07;;;;;;;;;;;26.90;58.90;;;;;;5094829;28;19922;-76
2022/06/25 10:54:35;;;;;;;;;;;26.90;59.00;;;;;;5095070;28;19914;-77
2022/06/25 10:57:02;;;;;;;;;;;26.90;58.90;;;;;;5095024;28;19908;-76
2022/06/25 10:59:45;;;;;;;;;;;26.90;58.80;;;;;;5094930;28;19908;-77
2022/06/25 11:02:11;;;;;;;;;;;27.00;58.90;;;;;;5076737;28;19909;-77
2022/06/25 11:04:37;;;;;;;;;;;27.00;58.60;;;;;;5094783;28;19908;-75
2022/06/25 11:07:09;;;;;;;;;;;27.10;58.60;;;;;;5094023;28;19908;-76
2022/06/25 11:09:35;;;;;;;;;;;27.20;58.70;;;;;;5094375;28;19908;-76
2022/06/25 11:12:01;;;;;;;;;;;27.20;58.40;;;;;;5094821;28;19961;-76
2022/06/25 11:14:26;;;;;;;;;;;27.30;58.30;;;;;;5094829;28;19951;-77
2022/06/25 11:16:53;;;;;;;;;;;27.40;58.30;;;;;;5076704;28;19909;-76
2022/06/25 11:19:19;;;;;;;;;;;27.40;58.20;;;;;;5094517;28;20286;-76
2022/06/25 11:21:45;;;;;;;;;;;27.40;58.10;;;;;;5095106;28;19953;-77
2022/06/25 11:24:21;;;;;;;;;;;27.40;56.80;;;;;;5095946;28;19916;-77
2022/06/25 11:29:35;;;;;;;;;;;27.10;57.30;;;;;;5094732;28;19927;-77
2022/06/25 11:32:01;;;;;;;;;;;27.00;57.80;;;;;;5076510;28;20323;-76
2022/06/25 11:34:32;;;;;;;;;;;26.90;58.10;;;;;;5094348;28;19954;-76
2022/06/25 11:37:10;;;;;;;;;;;26.90;58.40;;;;;;5075741;28;19954;-76
2022/06/25 11:39:37;;;;;;;;;;;26.90;58.60;;;;;;5093991;28;19912;-76
2022/06/25 11:42:05;;;;;;;;;;;26.90;58.40;;;;;;5094723;28;20002;-77
2022/06/25 11:44:46;;;;;;;;;;;26.90;58.60;;;;;;5094460;28;19908;-76
2022/06/25 11:47:13;;;;;;;;;;;26.90;57.80;;;;;;5076030;28;19909;-77
2022/06/25 11:49:39;;;;;;;;;;;26.90;58.00;;;;;;5093599;28;19916;-76
2022/06/25 11:52:05;;;;;;;;;;;26.90;58.30;;;;;;5093599;28;19916;-76
2022/06/25 11:54:32;;;;;;;;;;;27.00;58.30;;;;;;5094243;28;20382;-76
2022/06/25 11:56:58;;;;;;;;;;;27.00;58.20;;;;;;5094311;28;20278;-77
2022/06/25 11:59:24;;;;;;;;;;;27.10;57.40;;;;;;5094053;28;19915;-79
2022/06/25 12:01:50;;;;;;;;;;;27.10;56.80;;;;;;5075961;28;19919;-76
2022/06/25 12:04:16;;;;;;;;;;;27.20;56.90;;;;;;5093925;28;19995;-76
2022/06/25 12:06:42;;;;;;;;;;;27.20;57.50;;;;;;5093859;28;20049;-76
2022/06/25 12:09:07;;;;;;;;;;;27.40;57.70;;;;;;5094286;28;19991;-76
2022/06/25 12:11:33;;;;;;;;;;;27.50;57.60;;;;;;5075846;28;20392;-76
2022/06/25 12:13:59;;;;;;;;;;;27.70;56.90;;;;;;5093559;28;19994;-77
2022/06/25 12:16:39;;;;;;;;;;;27.70;57.10;;;;;;5093642;28;19998;-76
2022/06/25 12:19:05;;;;;;;;;;;27.80;57.00;;;;;;5094821;28;19936;-76
2022/06/25 12:21:30;;;;;;;;;;;27.90;56.40;;;;;;5097987;28;19962;-76
2022/06/25 12:23:56;;;;;;;;;;;27.90;56.60;;;;;;5097870;28;19944;-76
2022/06/25 12:26:23;;;;;;;;;;;27.90;55.50;;;;;;5097819;28;20403;-75
2022/06/25 12:28:49;;;;;;;;;;;27.80;56.20;;;;;;5097318;28;20001;-77
2022/06/25 12:31:16;;;;;;;;;;;27.90;56.40;;;;;;5097589;28;20397;-77
2022/06/25 12:33:51;;;;;;;;;;;27.80;56.00;;;;;;5097109;28;19938;-76
2022/06/25 12:36:17;;;;;;;;;;;27.90;56.20;;;;;;5097970;28;19908;-76
2022/06/25 12:38:43;;;;;;;;;;;28.00;56.50;;;;;;5080137;28;19931;-78
2022/06/25 12:41:09;;;;;;;;;;;28.10;56.30;;;;;;5097750;28;19912;-77
2022/06/25 12:43:45;;;;;;;;;;;28.20;56.20;;;;;;5097403;28;20421;-77
2022/06/25 12:46:11;;;;;;;;;;;28.30;56.10;;;;;;5097251;28;19908;-77
2022/06/25 12:48:37;;;;;;;;;;;28.40;56.00;;;;;;5097170;28;20012;-77
2022/06/25 12:51:08;;;;;;;;;;;28.60;56.00;;;;;;5063023;28;19916;-77
2022/06/25 12:53:33;;;;;;;;;;;28.70;55.50;;;;;;5097018;28;19916;-77
2022/06/25 12:56:00;;;;;;;;;;;28.70;54.60;;;;;;5097329;28;19912;-76
2022/06/25 12:58:32;;;;;;;;;;;28.50;54.60;;;;;;5096986;28;19912;-79
2022/06/25 13:00:57;;;;;;;;;;;28.30;54.10;;;;;;5097313;28;20346;-78
2022/06/25 13:03:23;;;;;;;;;;;28.10;54.90;;;;;;5062904;28;20042;-76
2022/06/25 13:05:48;;;;;;;;;;;27.80;55.30;;;;;;5097462;28;19961;-78
2022/06/25 13:08:14;;;;;;;;;;;27.50;54.50;;;;;;5097217;28;19951;-81
2022/06/25 13:10:40;;;;;;;;;;;27.30;55.10;;;;;;5096958;28;20006;-76
2022/06/25 13:13:05;;;;;;;;;;;27.00;55.80;;;;;;5096838;28;20341;-76
2022/06/25 13:15:31;;;;;;;;;;;26.90;56.20;;;;;;5097151;28;19918;-76
2022/06/25 13:17:56;;;;;;;;;;;26.80;56.50;;;;;;5096936;28;19908;-77
2022/06/25 13:20:22;;;;;;;;;;;26.70;56.70;;;;;;5096728;28;19913;-77
2022/06/25 13:22:48;;;;;;;;;;;26.70;56.80;;;;;;5078407;28;19912;-80
2022/06/25 13:25:13;;;;;;;;;;;26.60;57.10;;;;;;5078210;28;19908;-77
2022/06/25 13:27:39;;;;;;;;;;;26.50;57.20;;;;;;5096484;28;19912;-80
2022/06/25 13:30:05;;;;;;;;;;;26.50;57.60;;;;;;5096102;28;19928;-77
2022/06/25 13:32:31;;;;;;;;;;;26.30;57.40;;;;;;5096205;28;19919;-77
2022/06/25 13:34:57;;;;;;;;;;;26.20;57.50;;;;;;5097161;28;19908;-75
2022/06/25 13:37:22;;;;;;;;;;;26.20;57.80;;;;;;5078340;28;19908;-77
2022/06/25 13:39:48;;;;;;;;;;;26.10;57.90;;;;;;5096443;28;19909;-77
2022/06/25 13:42:14;;;;;;;;;;;26.10;58.00;;;;;;5096255;28;20367;-77
2022/06/25 13:44:39;;;;;;;;;;;26.10;58.00;;;;;;5096382;28;19923;-78
2022/06/25 13:47:06;;;;;;;;;;;26.10;58.00;;;;;;5096208;28;19914;-76
2022/06/25 13:49:32;;;;;;;;;;;26.10;58.00;;;;;;5096222;28;19938;-77
2022/06/25 13:51:59;;;;;;;;;;;26.10;58.00;;;;;;5077628;28;19912;-77
2022/06/25 13:54:30;;;;;;;;;;;26.10;58.00;;;;;;5077781;28;20365;-76
2022/06/25 13:56:59;;;;;;;;;;;26.10;58.00;;;;;;5077156;28;19915;-77
2022/06/25 13:59:25;;;;;;;;;;;26.10;57.90;;;;;;5094735;28;20274;-77
2022/06/25 14:01:51;;;;;;;;;;;26.10;57.90;;;;;;5095827;28;19908;-79
2022/06/25 14:04:19;;;;;;;;;;;26.20;58.00;;;;;;5095847;28;19908;-73
2022/06/25 14:06:46;;;;;;;;;;;26.20;57.90;;;;;;5095586;28;19999;-77
2022/06/25 14:09:12;;;;;;;;;;;26.20;57.80;;;;;;5095604;28;20386;-78
2022/06/25 14:11:38;;;;;;;;;;;26.20;57.90;;;;;;5095331;28;20090;-78
2022/06/25 14:14:04;;;;;;;;;;;26.20;57.80;;;;;;5096228;28;20358;-76
2022/06/25 14:16:30;;;;;;;;;;;26.20;57.80;;;;;;5095996;28;19960;-75
2022/06/25 14:18:55;;;;;;;;;;;26.20;57.90;;;;;;5096068;28;19947;-77
2022/06/25 14:21:21;;;;;;;;;;;26.20;57.90;;;;;;5095460;28;19973;-77
2022/06/25 14:23:46;;;;;;;;;;;26.10;57.90;;;;;;5095306;28;20388;-78
2022/06/25 14:26:12;;;;;;;;;;;26.10;57.90;;;;;;5076915;28;19934;-77